sensor_id;sensor_type;location;lat;lon;timestamp;P1;durP1;ratioP1;P2;durP2;ratioP2
39728;SDS011;25402;42.004;23.088;2023-02-11T00:00:19;34.95;;;14.13;;
39728;SDS011;25402;42.004;23.088;2023-02-11T00:02:47;35.10;;;14.85;;
39728;SDS011;25402;42.004;23.088;2023-02-11T00:05:14;29.92;;;13.32;;
39728;SDS011;25402;42.004;23.088;2023-02-11T00:07:41;33.92;;;14.40;;
39728;SDS011;25402;42.004;23.088;2023-02-11T00:10:07;35.05;;;13.63;;
39728;SDS011;25402;42.004;23.088;2023-02-11T00:12:34;33.40;;;14.48;;
39728;SDS011;25402;42.004;23.088;2023-02-11T00:15:01;38.05;;;15.15;;
39728;SDS011;25402;42.004;23.088;2023-02-11T00:17:28;38.60;;;15.43;;
39728;SDS011;25402;42.004;23.088;2023-02-11T00:19:56;34.97;;;14.55;;
39728;SDS011;25402;42.004;23.088;2023-02-11T00:22:23;39.58;;;14.32;;
39728;SDS011;25402;42.004;23.088;2023-02-11T00:24:49;39.78;;;14.93;;
39728;SDS011;25402;42.004;23.088;2023-02-11T00:27:16;42.28;;;15.30;;
39728;SDS011;25402;42.004;23.088;2023-02-11T00:29:43;37.53;;;15.68;;
39728;SDS011;25402;42.004;23.088;2023-02-11T00:32:09;40.33;;;15.93;;
39728;SDS011;25402;42.004;23.088;2023-02-11T00:34:36;40.72;;;16.38;;
39728;SDS011;25402;42.004;23.088;2023-02-11T00:37:04;41.13;;;16.23;;
39728;SDS011;25402;42.004;23.088;2023-02-11T00:39:31;43.95;;;17.17;;
39728;SDS011;25402;42.004;23.088;2023-02-11T00:41:58;30.98;;;15.02;;
39728;SDS011;25402;42.004;23.088;2023-02-11T00:44:24;42.30;;;15.70;;
39728;SDS011;25402;42.004;23.088;2023-02-11T00:46:51;36.75;;;15.38;;
39728;SDS011;25402;42.004;23.088;2023-02-11T00:49:17;38.53;;;16.60;;
39728;SDS011;25402;42.004;23.088;2023-02-11T00:51:44;36.55;;;15.13;;
39728;SDS011;25402;42.004;23.088;2023-02-11T00:54:12;38.78;;;15.10;;
39728;SDS011;25402;42.004;23.088;2023-02-11T00:56:38;32.25;;;13.90;;
39728;SDS011;25402;42.004;23.088;2023-02-11T00:59:05;36.90;;;15.35;;
39728;SDS011;25402;42.004;23.088;2023-02-11T01:01:31;40.72;;;15.05;;
39728;SDS011;25402;42.004;23.088;2023-02-11T01:03:58;33.42;;;14.13;;
39728;SDS011;25402;42.004;23.088;2023-02-11T01:06:25;35.33;;;13.23;;
39728;SDS011;25402;42.004;23.088;2023-02-11T01:08:51;32.40;;;13.88;;
39728;SDS011;25402;42.004;23.088;2023-02-11T01:11:19;32.70;;;13.70;;
39728;SDS011;25402;42.004;23.088;2023-02-11T01:13:46;36.28;;;13.70;;
39728;SDS011;25402;42.004;23.088;2023-02-11T01:16:13;31.60;;;12.55;;
39728;SDS011;25402;42.004;23.088;2023-02-11T01:18:40;26.75;;;11.88;;
39728;SDS011;25402;42.004;23.088;2023-02-11T01:21:08;27.48;;;11.23;;
39728;SDS011;25402;42.004;23.088;2023-02-11T01:23:35;32.10;;;12.23;;
39728;SDS011;25402;42.004;23.088;2023-02-11T01:26:01;30.77;;;11.90;;
39728;SDS011;25402;42.004;23.088;2023-02-11T01:28:30;28.60;;;12.48;;
39728;SDS011;25402;42.004;23.088;2023-02-11T01:30:56;34.13;;;12.63;;
39728;SDS011;25402;42.004;23.088;2023-02-11T01:33:23;29.10;;;12.13;;
39728;SDS011;25402;42.004;23.088;2023-02-11T01:35:49;33.60;;;12.50;;
39728;SDS011;25402;42.004;23.088;2023-02-11T01:38:17;38.55;;;13.65;;
39728;SDS011;25402;42.004;23.088;2023-02-11T01:40:47;39.20;;;13.43;;
39728;SDS011;25402;42.004;23.088;2023-02-11T01:43:14;37.05;;;13.80;;
39728;SDS011;25402;42.004;23.088;2023-02-11T01:45:46;30.50;;;12.55;;
39728;SDS011;25402;42.004;23.088;2023-02-11T01:48:16;36.97;;;13.48;;
39728;SDS011;25402;42.004;23.088;2023-02-11T01:50:43;35.25;;;13.18;;
39728;SDS011;25402;42.004;23.088;2023-02-11T01:53:11;33.15;;;12.48;;
39728;SDS011;25402;42.004;23.088;2023-02-11T01:58:40;26.02;;;11.98;;
39728;SDS011;25402;42.004;23.088;2023-02-11T02:01:11;29.92;;;12.68;;
39728;SDS011;25402;42.004;23.088;2023-02-11T02:03:40;32.10;;;14.05;;
39728;SDS011;25402;42.004;23.088;2023-02-11T02:06:09;37.80;;;14.02;;
39728;SDS011;25402;42.004;23.088;2023-02-11T02:08:38;34.60;;;14.85;;
39728;SDS011;25402;42.004;23.088;2023-02-11T02:11:06;35.03;;;14.43;;
39728;SDS011;25402;42.004;23.088;2023-02-11T02:13:33;37.72;;;14.95;;
39728;SDS011;25402;42.004;23.088;2023-02-11T02:16:00;30.75;;;12.90;;
39728;SDS011;25402;42.004;23.088;2023-02-11T02:18:32;32.08;;;13.48;;
39728;SDS011;25402;42.004;23.088;2023-02-11T02:23:51;33.38;;;14.20;;
39728;SDS011;25402;42.004;23.088;2023-02-11T02:29:22;46.17;;;14.38;;
39728;SDS011;25402;42.004;23.088;2023-02-11T02:34:40;34.83;;;13.75;;
39728;SDS011;25402;42.004;23.088;2023-02-11T02:37:11;38.03;;;15.40;;
39728;SDS011;25402;42.004;23.088;2023-02-11T02:39:41;47.60;;;15.75;;
39728;SDS011;25402;42.004;23.088;2023-02-11T02:42:08;36.35;;;14.25;;
39728;SDS011;25402;42.004;23.088;2023-02-11T02:44:35;35.25;;;15.10;;
39728;SDS011;25402;42.004;23.088;2023-02-11T02:47:02;38.00;;;14.90;;
39728;SDS011;25402;42.004;23.088;2023-02-11T02:49:28;37.92;;;15.20;;
39728;SDS011;25402;42.004;23.088;2023-02-11T02:52:02;34.55;;;15.02;;
39728;SDS011;25402;42.004;23.088;2023-02-11T02:54:45;39.00;;;15.18;;
39728;SDS011;25402;42.004;23.088;2023-02-11T02:57:20;37.35;;;14.63;;
39728;SDS011;25402;42.004;23.088;2023-02-11T02:59:55;36.83;;;15.07;;
39728;SDS011;25402;42.004;23.088;2023-02-11T03:02:28;44.38;;;16.10;;
39728;SDS011;25402;42.004;23.088;2023-02-11T03:04:56;38.20;;;15.45;;
39728;SDS011;25402;42.004;23.088;2023-02-11T03:07:28;38.97;;;14.65;;
39728;SDS011;25402;42.004;23.088;2023-02-11T03:09:58;32.85;;;13.27;;
39728;SDS011;25402;42.004;23.088;2023-02-11T03:12:25;42.92;;;14.30;;
39728;SDS011;25402;42.004;23.088;2023-02-11T03:14:53;35.20;;;13.13;;
39728;SDS011;25402;42.004;23.088;2023-02-11T03:17:19;28.40;;;12.95;;
39728;SDS011;25402;42.004;23.088;2023-02-11T03:19:47;29.58;;;10.88;;
39728;SDS011;25402;42.004;23.088;2023-02-11T03:22:16;24.88;;;10.82;;
39728;SDS011;25402;42.004;23.088;2023-02-11T03:24:46;33.03;;;11.18;;
39728;SDS011;25402;42.004;23.088;2023-02-11T03:27:14;26.65;;;11.10;;
39728;SDS011;25402;42.004;23.088;2023-02-11T03:29:45;30.90;;;12.27;;
39728;SDS011;25402;42.004;23.088;2023-02-11T03:32:16;32.60;;;12.40;;
39728;SDS011;25402;42.004;23.088;2023-02-11T03:34:45;31.20;;;12.32;;
39728;SDS011;25402;42.004;23.088;2023-02-11T03:37:15;33.63;;;12.80;;
39728;SDS011;25402;42.004;23.088;2023-02-11T03:39:43;31.83;;;11.90;;
39728;SDS011;25402;42.004;23.088;2023-02-11T03:42:12;30.35;;;11.82;;
39728;SDS011;25402;42.004;23.088;2023-02-11T03:44:40;28.58;;;12.38;;
39728;SDS011;25402;42.004;23.088;2023-02-11T03:47:09;31.35;;;12.15;;
39728;SDS011;25402;42.004;23.088;2023-02-11T03:49:38;28.83;;;10.95;;
39728;SDS011;25402;42.004;23.088;2023-02-11T03:52:05;30.60;;;11.73;;
39728;SDS011;25402;42.004;23.088;2023-02-11T03:54:35;32.55;;;12.20;;
39728;SDS011;25402;42.004;23.088;2023-02-11T03:57:02;27.17;;;11.43;;
39728;SDS011;25402;42.004;23.088;2023-02-11T03:59:30;33.03;;;12.13;;
39728;SDS011;25402;42.004;23.088;2023-02-11T04:01:57;35.05;;;11.98;;
39728;SDS011;25402;42.004;23.088;2023-02-11T04:04:24;31.67;;;12.10;;
39728;SDS011;25402;42.004;23.088;2023-02-11T04:06:51;34.10;;;12.52;;
39728;SDS011;25402;42.004;23.088;2023-02-11T04:09:17;31.33;;;12.15;;
39728;SDS011;25402;42.004;23.088;2023-02-11T04:11:44;33.30;;;11.95;;
39728;SDS011;25402;42.004;23.088;2023-02-11T04:14:10;29.40;;;11.88;;
39728;SDS011;25402;42.004;23.088;2023-02-11T04:16:38;38.85;;;12.90;;
39728;SDS011;25402;42.004;23.088;2023-02-11T04:19:05;33.95;;;12.48;;
39728;SDS011;25402;42.004;23.088;2023-02-11T04:21:32;40.13;;;14.80;;
39728;SDS011;25402;42.004;23.088;2023-02-11T04:23:58;36.83;;;13.75;;
39728;SDS011;25402;42.004;23.088;2023-02-11T04:26:25;37.53;;;13.25;;
39728;SDS011;25402;42.004;23.088;2023-02-11T04:28:51;35.47;;;13.45;;
39728;SDS011;25402;42.004;23.088;2023-02-11T04:31:18;44.95;;;14.95;;
39728;SDS011;25402;42.004;23.088;2023-02-11T04:33:46;38.92;;;15.63;;
39728;SDS011;25402;42.004;23.088;2023-02-11T04:36:12;55.78;;;17.55;;
39728;SDS011;25402;42.004;23.088;2023-02-11T04:38:39;45.20;;;16.85;;
39728;SDS011;25402;42.004;23.088;2023-02-11T04:41:05;44.55;;;16.20;;
39728;SDS011;25402;42.004;23.088;2023-02-11T04:43:32;47.45;;;16.73;;
39728;SDS011;25402;42.004;23.088;2023-02-11T04:45:58;43.03;;;16.38;;
39728;SDS011;25402;42.004;23.088;2023-02-11T04:48:25;46.25;;;17.17;;
39728;SDS011;25402;42.004;23.088;2023-02-11T04:50:53;42.35;;;16.00;;
39728;SDS011;25402;42.004;23.088;2023-02-11T04:53:20;38.95;;;16.83;;
39728;SDS011;25402;42.004;23.088;2023-02-11T04:55:47;48.92;;;16.35;;
39728;SDS011;25402;42.004;23.088;2023-02-11T04:58:14;46.35;;;16.38;;
39728;SDS011;25402;42.004;23.088;2023-02-11T05:00:40;42.13;;;16.95;;
39728;SDS011;25402;42.004;23.088;2023-02-11T05:03:07;46.05;;;17.10;;
39728;SDS011;25402;42.004;23.088;2023-02-11T05:05:36;37.60;;;15.90;;
39728;SDS011;25402;42.004;23.088;2023-02-11T05:08:04;51.13;;;17.38;;
39728;SDS011;25402;42.004;23.088;2023-02-11T05:10:31;45.35;;;16.95;;
39728;SDS011;25402;42.004;23.088;2023-02-11T05:12:58;44.25;;;17.10;;
39728;SDS011;25402;42.004;23.088;2023-02-11T05:15:24;48.40;;;17.40;;
39728;SDS011;25402;42.004;23.088;2023-02-11T05:17:51;50.60;;;17.10;;
39728;SDS011;25402;42.004;23.088;2023-02-11T05:20:17;40.10;;;15.45;;
39728;SDS011;25402;42.004;23.088;2023-02-11T05:22:44;40.85;;;16.40;;
39728;SDS011;25402;42.004;23.088;2023-02-11T05:25:12;43.65;;;16.90;;
39728;SDS011;25402;42.004;23.088;2023-02-11T05:27:39;45.13;;;17.02;;
39728;SDS011;25402;42.004;23.088;2023-02-11T05:30:06;47.67;;;17.55;;
39728;SDS011;25402;42.004;23.088;2023-02-11T05:32:32;44.63;;;17.20;;
39728;SDS011;25402;42.004;23.088;2023-02-11T05:34:59;44.70;;;16.70;;
39728;SDS011;25402;42.004;23.088;2023-02-11T05:37:26;48.28;;;17.20;;
39728;SDS011;25402;42.004;23.088;2023-02-11T05:39:52;42.70;;;15.85;;
39728;SDS011;25402;42.004;23.088;2023-02-11T05:42:20;49.70;;;16.40;;
39728;SDS011;25402;42.004;23.088;2023-02-11T05:44:47;50.15;;;16.33;;
39728;SDS011;25402;42.004;23.088;2023-02-11T05:47:13;54.30;;;19.70;;
39728;SDS011;25402;42.004;23.088;2023-02-11T05:49:40;47.33;;;18.60;;
39728;SDS011;25402;42.004;23.088;2023-02-11T05:52:06;43.58;;;17.30;;
39728;SDS011;25402;42.004;23.088;2023-02-11T05:54:33;43.50;;;16.58;;
39728;SDS011;25402;42.004;23.088;2023-02-11T05:57:00;43.08;;;16.20;;
39728;SDS011;25402;42.004;23.088;2023-02-11T05:59:27;45.83;;;15.88;;
39728;SDS011;25402;42.004;23.088;2023-02-11T06:01:54;43.05;;;14.80;;
39728;SDS011;25402;42.004;23.088;2023-02-11T06:04:21;41.20;;;14.57;;
39728;SDS011;25402;42.004;23.088;2023-02-11T06:06:47;41.47;;;15.15;;
39728;SDS011;25402;42.004;23.088;2023-02-11T06:09:14;36.22;;;14.73;;
39728;SDS011;25402;42.004;23.088;2023-02-11T06:11:40;44.15;;;15.75;;
39728;SDS011;25402;42.004;23.088;2023-02-11T06:14:07;44.40;;;17.25;;
39728;SDS011;25402;42.004;23.088;2023-02-11T06:16:35;45.55;;;17.13;;
39728;SDS011;25402;42.004;23.088;2023-02-11T06:19:02;46.78;;;16.88;;
39728;SDS011;25402;42.004;23.088;2023-02-11T06:21:28;49.08;;;18.00;;
39728;SDS011;25402;42.004;23.088;2023-02-11T06:23:55;44.75;;;17.65;;
39728;SDS011;25402;42.004;23.088;2023-02-11T06:26:21;47.47;;;17.63;;
39728;SDS011;25402;42.004;23.088;2023-02-11T06:28:48;309.35;;;25.05;;
39728;SDS011;25402;42.004;23.088;2023-02-11T06:31:15;91.05;;;21.80;;
39728;SDS011;25402;42.004;23.088;2023-02-11T06:33:43;62.42;;;20.92;;
39728;SDS011;25402;42.004;23.088;2023-02-11T06:36:11;60.20;;;21.92;;
39728;SDS011;25402;42.004;23.088;2023-02-11T06:38:38;58.33;;;21.13;;
39728;SDS011;25402;42.004;23.088;2023-02-11T06:41:04;62.17;;;25.05;;
39728;SDS011;25402;42.004;23.088;2023-02-11T06:43:31;67.47;;;22.40;;
39728;SDS011;25402;42.004;23.088;2023-02-11T06:45:57;66.25;;;23.98;;
39728;SDS011;25402;42.004;23.088;2023-02-11T06:48:24;58.58;;;23.58;;
39728;SDS011;25402;42.004;23.088;2023-02-11T06:50:52;60.78;;;23.73;;
39728;SDS011;25402;42.004;23.088;2023-02-11T06:53:19;63.10;;;24.02;;
39728;SDS011;25402;42.004;23.088;2023-02-11T06:55:45;63.38;;;23.45;;
39728;SDS011;25402;42.004;23.088;2023-02-11T06:58:12;60.58;;;24.88;;
39728;SDS011;25402;42.004;23.088;2023-02-11T07:00:38;57.28;;;23.15;;
39728;SDS011;25402;42.004;23.088;2023-02-11T07:03:05;62.10;;;23.45;;
39728;SDS011;25402;42.004;23.088;2023-02-11T07:05:32;64.70;;;21.15;;
39728;SDS011;25402;42.004;23.088;2023-02-11T07:08:00;45.55;;;18.40;;
39728;SDS011;25402;42.004;23.088;2023-02-11T07:10:29;45.58;;;18.33;;
39728;SDS011;25402;42.004;23.088;2023-02-11T07:12:55;50.67;;;16.83;;
39728;SDS011;25402;42.004;23.088;2023-02-11T07:15:22;42.65;;;16.80;;
39728;SDS011;25402;42.004;23.088;2023-02-11T07:17:49;39.72;;;15.30;;
39728;SDS011;25402;42.004;23.088;2023-02-11T07:20:15;50.03;;;16.27;;
39728;SDS011;25402;42.004;23.088;2023-02-11T07:22:42;54.00;;;17.02;;
39728;SDS011;25402;42.004;23.088;2023-02-11T07:25:10;45.30;;;18.63;;
39728;SDS011;25402;42.004;23.088;2023-02-11T07:27:36;42.88;;;17.98;;
39728;SDS011;25402;42.004;23.088;2023-02-11T07:30:03;39.83;;;18.58;;
39728;SDS011;25402;42.004;23.088;2023-02-11T07:32:30;46.78;;;19.35;;
39728;SDS011;25402;42.004;23.088;2023-02-11T07:34:57;44.38;;;20.23;;
39728;SDS011;25402;42.004;23.088;2023-02-11T07:37:23;47.33;;;20.20;;
39728;SDS011;25402;42.004;23.088;2023-02-11T07:39:50;48.60;;;21.25;;
39728;SDS011;25402;42.004;23.088;2023-02-11T07:42:18;53.70;;;23.30;;
39728;SDS011;25402;42.004;23.088;2023-02-11T07:44:45;51.72;;;21.52;;
39728;SDS011;25402;42.004;23.088;2023-02-11T07:47:11;53.83;;;21.70;;
39728;SDS011;25402;42.004;23.088;2023-02-11T07:49:38;48.55;;;20.70;;
39728;SDS011;25402;42.004;23.088;2023-02-11T07:52:04;55.13;;;22.77;;
39728;SDS011;25402;42.004;23.088;2023-02-11T07:54:31;53.33;;;22.77;;
39728;SDS011;25402;42.004;23.088;2023-02-11T07:56:57;57.65;;;23.30;;
39728;SDS011;25402;42.004;23.088;2023-02-11T07:59:25;53.92;;;22.02;;
39728;SDS011;25402;42.004;23.088;2023-02-11T08:01:52;55.22;;;22.42;;
39728;SDS011;25402;42.004;23.088;2023-02-11T08:04:19;45.53;;;20.65;;
39728;SDS011;25402;42.004;23.088;2023-02-11T08:06:45;47.47;;;20.80;;
39728;SDS011;25402;42.004;23.088;2023-02-11T08:09:13;40.75;;;19.15;;
39728;SDS011;25402;42.004;23.088;2023-02-11T08:11:40;53.67;;;19.70;;
39728;SDS011;25402;42.004;23.088;2023-02-11T08:14:07;47.47;;;20.65;;
39728;SDS011;25402;42.004;23.088;2023-02-11T08:16:35;46.17;;;19.33;;
39728;SDS011;25402;42.004;23.088;2023-02-11T08:19:03;44.95;;;20.15;;
39728;SDS011;25402;42.004;23.088;2023-02-11T08:21:30;45.70;;;19.80;;
39728;SDS011;25402;42.004;23.088;2023-02-11T08:24:01;47.17;;;19.38;;
39728;SDS011;25402;42.004;23.088;2023-02-11T08:26:28;47.78;;;19.55;;
39728;SDS011;25402;42.004;23.088;2023-02-11T08:28:56;51.65;;;19.80;;
39728;SDS011;25402;42.004;23.088;2023-02-11T08:31:23;41.40;;;19.15;;
39728;SDS011;25402;42.004;23.088;2023-02-11T08:33:52;39.90;;;18.45;;
39728;SDS011;25402;42.004;23.088;2023-02-11T08:36:22;42.42;;;17.50;;
39728;SDS011;25402;42.004;23.088;2023-02-11T08:38:49;58.65;;;18.60;;
39728;SDS011;25402;42.004;23.088;2023-02-11T08:41:16;39.50;;;16.92;;
39728;SDS011;25402;42.004;23.088;2023-02-11T08:43:43;45.88;;;18.30;;
39728;SDS011;25402;42.004;23.088;2023-02-11T08:46:11;42.08;;;17.95;;
39728;SDS011;25402;42.004;23.088;2023-02-11T08:48:37;43.25;;;18.95;;
39728;SDS011;25402;42.004;23.088;2023-02-11T08:51:06;38.85;;;17.42;;
39728;SDS011;25402;42.004;23.088;2023-02-11T08:53:33;37.58;;;16.60;;
39728;SDS011;25402;42.004;23.088;2023-02-11T08:56:00;38.75;;;16.45;;
39728;SDS011;25402;42.004;23.088;2023-02-11T08:58:26;38.78;;;17.17;;
39728;SDS011;25402;42.004;23.088;2023-02-11T09:00:53;38.40;;;17.70;;
39728;SDS011;25402;42.004;23.088;2023-02-11T09:03:19;37.45;;;17.63;;
39728;SDS011;25402;42.004;23.088;2023-02-11T09:05:47;38.97;;;18.08;;
39728;SDS011;25402;42.004;23.088;2023-02-11T09:08:15;47.10;;;18.63;;
39728;SDS011;25402;42.004;23.088;2023-02-11T09:10:42;47.20;;;18.10;;
39728;SDS011;25402;42.004;23.088;2023-02-11T09:13:09;49.72;;;18.77;;
39728;SDS011;25402;42.004;23.088;2023-02-11T09:15:35;47.63;;;18.13;;
39728;SDS011;25402;42.004;23.088;2023-02-11T09:18:02;44.28;;;17.35;;
39728;SDS011;25402;42.004;23.088;2023-02-11T09:20:29;40.67;;;16.92;;
39728;SDS011;25402;42.004;23.088;2023-02-11T09:22:56;49.50;;;17.40;;
39728;SDS011;25402;42.004;23.088;2023-02-11T09:25:25;40.75;;;17.05;;
39728;SDS011;25402;42.004;23.088;2023-02-11T09:27:51;33.47;;;15.68;;
39728;SDS011;25402;42.004;23.088;2023-02-11T09:30:18;36.38;;;17.17;;
39728;SDS011;25402;42.004;23.088;2023-02-11T09:32:45;35.35;;;15.15;;
39728;SDS011;25402;42.004;23.088;2023-02-11T09:35:11;39.10;;;15.38;;
39728;SDS011;25402;42.004;23.088;2023-02-11T09:37:38;33.33;;;15.45;;
39728;SDS011;25402;42.004;23.088;2023-02-11T09:40:05;36.03;;;14.60;;
39728;SDS011;25402;42.004;23.088;2023-02-11T09:42:45;36.95;;;14.68;;
39728;SDS011;25402;42.004;23.088;2023-02-11T09:45:14;35.65;;;14.70;;
39728;SDS011;25402;42.004;23.088;2023-02-11T09:47:44;33.95;;;14.82;;
39728;SDS011;25402;42.004;23.088;2023-02-11T09:50:12;32.95;;;14.48;;
39728;SDS011;25402;42.004;23.088;2023-02-11T09:52:40;34.38;;;15.48;;
39728;SDS011;25402;42.004;23.088;2023-02-11T09:55:13;30.95;;;14.35;;
39728;SDS011;25402;42.004;23.088;2023-02-11T09:57:42;27.67;;;13.60;;
39728;SDS011;25402;42.004;23.088;2023-02-11T10:02:46;26.87;;;13.07;;
39728;SDS011;25402;42.004;23.088;2023-02-11T10:05:23;26.08;;;12.27;;
39728;SDS011;25402;42.004;23.088;2023-02-11T10:07:54;29.02;;;13.65;;
39728;SDS011;25402;42.004;23.088;2023-02-11T10:10:27;28.27;;;12.82;;
39728;SDS011;25402;42.004;23.088;2023-02-11T10:13:00;26.00;;;12.77;;
39728;SDS011;25402;42.004;23.088;2023-02-11T10:15:32;31.02;;;13.73;;
39728;SDS011;25402;42.004;23.088;2023-02-11T10:20:57;27.95;;;13.68;;
39728;SDS011;25402;42.004;23.088;2023-02-11T10:23:28;30.48;;;12.65;;
39728;SDS011;25402;42.004;23.088;2023-02-11T10:25:56;27.75;;;12.55;;
39728;SDS011;25402;42.004;23.088;2023-02-11T10:28:26;32.30;;;14.05;;
39728;SDS011;25402;42.004;23.088;2023-02-11T10:30:55;39.28;;;14.38;;
39728;SDS011;25402;42.004;23.088;2023-02-11T10:33:23;30.92;;;13.68;;
39728;SDS011;25402;42.004;23.088;2023-02-11T10:35:51;32.97;;;13.88;;
39728;SDS011;25402;42.004;23.088;2023-02-11T10:38:19;27.20;;;13.93;;
39728;SDS011;25402;42.004;23.088;2023-02-11T10:40:46;27.88;;;13.77;;
39728;SDS011;25402;42.004;23.088;2023-02-11T10:43:13;27.40;;;12.57;;
39728;SDS011;25402;42.004;23.088;2023-02-11T10:45:41;28.98;;;12.00;;
39728;SDS011;25402;42.004;23.088;2023-02-11T10:50:49;31.63;;;12.38;;
39728;SDS011;25402;42.004;23.088;2023-02-11T10:53:18;27.15;;;11.27;;
39728;SDS011;25402;42.004;23.088;2023-02-11T10:55:51;28.63;;;11.98;;
39728;SDS011;25402;42.004;23.088;2023-02-11T10:58:22;30.58;;;12.80;;
39728;SDS011;25402;42.004;23.088;2023-02-11T11:00:50;28.95;;;12.77;;
39728;SDS011;25402;42.004;23.088;2023-02-11T11:03:18;22.95;;;12.27;;
39728;SDS011;25402;42.004;23.088;2023-02-11T11:05:46;25.23;;;12.23;;
39728;SDS011;25402;42.004;23.088;2023-02-11T11:08:13;25.23;;;12.73;;
39728;SDS011;25402;42.004;23.088;2023-02-11T11:10:41;24.55;;;11.82;;
39728;SDS011;25402;42.004;23.088;2023-02-11T11:13:26;23.30;;;12.02;;
39728;SDS011;25402;42.004;23.088;2023-02-11T11:16:06;26.52;;;11.90;;
39728;SDS011;25402;42.004;23.088;2023-02-11T11:18:33;25.77;;;11.70;;
39728;SDS011;25402;42.004;23.088;2023-02-11T11:21:00;22.13;;;10.98;;
39728;SDS011;25402;42.004;23.088;2023-02-11T11:23:28;24.52;;;11.48;;
39728;SDS011;25402;42.004;23.088;2023-02-11T11:25:59;25.85;;;10.90;;
39728;SDS011;25402;42.004;23.088;2023-02-11T11:28:28;27.25;;;11.32;;
39728;SDS011;25402;42.004;23.088;2023-02-11T11:30:56;24.90;;;11.73;;
39728;SDS011;25402;42.004;23.088;2023-02-11T11:33:27;23.67;;;11.45;;
39728;SDS011;25402;42.004;23.088;2023-02-11T11:35:56;21.70;;;10.57;;
39728;SDS011;25402;42.004;23.088;2023-02-11T11:38:24;21.75;;;10.38;;
39728;SDS011;25402;42.004;23.088;2023-02-11T11:43:33;19.23;;;10.30;;
39728;SDS011;25402;42.004;23.088;2023-02-11T11:46:01;22.15;;;10.45;;
39728;SDS011;25402;42.004;23.088;2023-02-11T11:48:30;24.40;;;11.23;;
39728;SDS011;25402;42.004;23.088;2023-02-11T11:50:58;23.73;;;11.57;;
39728;SDS011;25402;42.004;23.088;2023-02-11T11:53:28;21.13;;;10.73;;
39728;SDS011;25402;42.004;23.088;2023-02-11T11:55:59;18.80;;;9.55;;
39728;SDS011;25402;42.004;23.088;2023-02-11T11:58:27;19.63;;;9.20;;
39728;SDS011;25402;42.004;23.088;2023-02-11T12:00:57;17.58;;;9.77;;
39728;SDS011;25402;42.004;23.088;2023-02-11T12:03:30;108.82;;;12.88;;
39728;SDS011;25402;42.004;23.088;2023-02-11T12:06:06;22.10;;;10.85;;
39728;SDS011;25402;42.004;23.088;2023-02-11T12:08:36;28.33;;;11.07;;
39728;SDS011;25402;42.004;23.088;2023-02-11T12:11:08;20.52;;;10.15;;
39728;SDS011;25402;42.004;23.088;2023-02-11T12:13:44;28.85;;;10.75;;
39728;SDS011;25402;42.004;23.088;2023-02-11T12:16:18;22.77;;;9.65;;
39728;SDS011;25402;42.004;23.088;2023-02-11T12:21:47;22.33;;;10.82;;
39728;SDS011;25402;42.004;23.088;2023-02-11T12:24:18;22.70;;;10.40;;
39728;SDS011;25402;42.004;23.088;2023-02-11T12:26:52;21.70;;;10.25;;
39728;SDS011;25402;42.004;23.088;2023-02-11T12:29:23;25.67;;;10.27;;
39728;SDS011;25402;42.004;23.088;2023-02-11T12:31:57;22.67;;;9.77;;
39728;SDS011;25402;42.004;23.088;2023-02-11T12:34:37;20.52;;;10.43;;
39728;SDS011;25402;42.004;23.088;2023-02-11T12:37:10;24.73;;;9.98;;
39728;SDS011;25402;42.004;23.088;2023-02-11T12:39:43;19.15;;;9.57;;
39728;SDS011;25402;42.004;23.088;2023-02-11T12:42:16;29.40;;;9.88;;
39728;SDS011;25402;42.004;23.088;2023-02-11T12:45:13;21.83;;;10.20;;
39728;SDS011;25402;42.004;23.088;2023-02-11T12:47:46;17.65;;;9.35;;
39728;SDS011;25402;42.004;23.088;2023-02-11T12:50:17;18.55;;;9.48;;
39728;SDS011;25402;42.004;23.088;2023-02-11T12:52:52;19.75;;;9.60;;
39728;SDS011;25402;42.004;23.088;2023-02-11T12:55:23;19.92;;;9.13;;
39728;SDS011;25402;42.004;23.088;2023-02-11T12:57:51;19.30;;;9.82;;
39728;SDS011;25402;42.004;23.088;2023-02-11T13:00:19;22.40;;;10.13;;
39728;SDS011;25402;42.004;23.088;2023-02-11T13:02:50;23.95;;;10.13;;
39728;SDS011;25402;42.004;23.088;2023-02-11T13:05:22;20.17;;;9.95;;
39728;SDS011;25402;42.004;23.088;2023-02-11T13:07:49;17.98;;;8.98;;
39728;SDS011;25402;42.004;23.088;2023-02-11T13:10:25;22.25;;;9.23;;
39728;SDS011;25402;42.004;23.088;2023-02-11T13:12:53;17.35;;;8.60;;
39728;SDS011;25402;42.004;23.088;2023-02-11T13:15:38;19.50;;;9.35;;
39728;SDS011;25402;42.004;23.088;2023-02-11T13:18:11;22.38;;;10.73;;
39728;SDS011;25402;42.004;23.088;2023-02-11T13:20:40;22.00;;;9.75;;
39728;SDS011;25402;42.004;23.088;2023-02-11T13:23:10;28.17;;;13.05;;
39728;SDS011;25402;42.004;23.088;2023-02-11T13:25:40;24.85;;;12.00;;
39728;SDS011;25402;42.004;23.088;2023-02-11T13:28:13;32.70;;;12.73;;
39728;SDS011;25402;42.004;23.088;2023-02-11T13:30:43;23.13;;;12.13;;
39728;SDS011;25402;42.004;23.088;2023-02-11T13:33:18;23.55;;;11.48;;
39728;SDS011;25402;42.004;23.088;2023-02-11T13:35:46;23.63;;;11.60;;
39728;SDS011;25402;42.004;23.088;2023-02-11T13:38:17;26.60;;;11.57;;
39728;SDS011;25402;42.004;23.088;2023-02-11T13:40:51;25.20;;;11.45;;
39728;SDS011;25402;42.004;23.088;2023-02-11T13:43:23;27.33;;;12.02;;
39728;SDS011;25402;42.004;23.088;2023-02-11T13:45:53;24.42;;;11.30;;
39728;SDS011;25402;42.004;23.088;2023-02-11T13:48:24;25.33;;;11.60;;
39728;SDS011;25402;42.004;23.088;2023-02-11T13:50:52;24.98;;;11.10;;
39728;SDS011;25402;42.004;23.088;2023-02-11T13:53:19;41.15;;;11.25;;
39728;SDS011;25402;42.004;23.088;2023-02-11T13:55:47;20.35;;;9.93;;
39728;SDS011;25402;42.004;23.088;2023-02-11T13:58:15;23.13;;;9.77;;
39728;SDS011;25402;42.004;23.088;2023-02-11T14:00:43;23.77;;;10.40;;
39728;SDS011;25402;42.004;23.088;2023-02-11T14:03:24;27.63;;;10.45;;
39728;SDS011;25402;42.004;23.088;2023-02-11T14:06:10;25.23;;;10.23;;
39728;SDS011;25402;42.004;23.088;2023-02-11T14:08:59;24.70;;;10.38;;
39728;SDS011;25402;42.004;23.088;2023-02-11T14:11:43;24.52;;;10.00;;
39728;SDS011;25402;42.004;23.088;2023-02-11T14:14:14;19.67;;;9.15;;
39728;SDS011;25402;42.004;23.088;2023-02-11T14:19:31;27.60;;;10.70;;
39728;SDS011;25402;42.004;23.088;2023-02-11T14:22:00;19.63;;;9.90;;
39728;SDS011;25402;42.004;23.088;2023-02-11T14:24:44;23.40;;;9.80;;
39728;SDS011;25402;42.004;23.088;2023-02-11T14:27:14;32.70;;;10.15;;
39728;SDS011;25402;42.004;23.088;2023-02-11T14:29:48;22.42;;;10.45;;
39728;SDS011;25402;42.004;23.088;2023-02-11T14:32:20;23.30;;;10.35;;
39728;SDS011;25402;42.004;23.088;2023-02-11T14:34:57;22.95;;;9.85;;
39728;SDS011;25402;42.004;23.088;2023-02-11T14:37:29;23.60;;;9.68;;
39728;SDS011;25402;42.004;23.088;2023-02-11T14:40:04;18.00;;;8.80;;
39728;SDS011;25402;42.004;23.088;2023-02-11T14:42:33;34.90;;;9.52;;
39728;SDS011;25402;42.004;23.088;2023-02-11T14:45:03;23.23;;;9.40;;
39728;SDS011;25402;42.004;23.088;2023-02-11T14:47:33;23.77;;;9.95;;